createdAt,value
2022-09-23T00:01:14.325Z,21.08
2022-09-23T00:03:43.293Z,12.15
2022-09-23T00:06:16.079Z,20.23
2022-09-23T00:08:44.137Z,11.05
2022-09-23T00:11:12.663Z,7.50
2022-09-23T00:13:40.647Z,5.93
2022-09-23T00:16:10.927Z,5.20
2022-09-23T00:18:38.319Z,5.22
2022-09-23T00:21:06.430Z,5.00
2022-09-23T00:23:33.549Z,5.43
2022-09-23T00:26:01.894Z,5.72
2022-09-23T00:28:29.756Z,5.82
2022-09-23T00:30:56.898Z,5.40
2022-09-23T00:33:23.919Z,6.38
2022-09-23T00:35:50.727Z,6.40
2022-09-23T00:38:17.786Z,6.60
2022-09-23T00:40:46.253Z,6.22
2022-09-23T00:43:14.585Z,6.78
2022-09-23T00:45:47.042Z,6.53
2022-09-23T00:48:19.936Z,6.25
2022-09-23T00:50:52.183Z,5.95
2022-09-23T00:53:22.621Z,6.88
2022-09-23T00:55:55.295Z,9.23
2022-09-23T00:58:26.972Z,12.00
2022-09-23T01:00:55.623Z,10.48
2022-09-23T01:03:22.963Z,9.38
2022-09-23T01:05:50.352Z,6.45
2022-09-23T01:08:17.866Z,6.45
2022-09-23T01:11:10.319Z,6.47
2022-09-23T01:14:02.151Z,5.68
2022-09-23T01:16:39.089Z,6.28
2022-09-23T01:19:51.353Z,5.82
2022-09-23T01:22:51.769Z,6.63
2022-09-23T01:25:24.814Z,6.50
2022-09-23T01:28:06.856Z,6.72
2022-09-23T01:30:52.867Z,6.93
2022-09-23T01:33:24.926Z,6.80
2022-09-23T01:36:19.029Z,6.75
2022-09-23T01:38:58.471Z,6.80
2022-09-23T01:41:43.044Z,6.70
2022-09-23T01:44:14.090Z,6.53
2022-09-23T01:46:48.449Z,7.68
2022-09-23T01:49:17.306Z,6.72
2022-09-23T01:51:48.323Z,6.85
2022-09-23T01:54:38.843Z,6.30
2022-09-23T01:57:12.164Z,6.82
2022-09-23T01:59:41.160Z,6.72
2022-09-23T02:02:08.242Z,6.93
2022-09-23T02:04:54.858Z,7.13
2022-09-23T02:07:31.130Z,6.40
2022-09-23T02:10:06.182Z,7.50
2022-09-23T02:12:35.877Z,7.28
2022-09-23T02:15:10.518Z,7.57
2022-09-23T02:17:47.422Z,6.28
2022-09-23T02:20:20.638Z,6.90
2022-09-23T02:22:57.009Z,6.45
2022-09-23T02:25:31.623Z,6.55
2022-09-23T02:28:28.640Z,7.22
2022-09-23T02:31:10.932Z,6.28
2022-09-23T02:33:55.466Z,6.80
2022-09-23T02:36:29.211Z,6.80
2022-09-23T02:38:59.598Z,7.10
2022-09-23T02:41:37.502Z,6.70
2022-09-23T02:44:10.362Z,6.78
2022-09-23T02:46:37.960Z,6.70
2022-09-23T02:49:14.324Z,7.28
2022-09-23T02:51:41.630Z,6.93
2022-09-23T02:54:12.519Z,7.18
2022-09-23T02:56:40.366Z,6.43
2022-09-23T02:59:08.484Z,6.40
2022-09-23T03:01:58.169Z,7.03
2022-09-23T03:04:50.509Z,6.90
2022-09-23T03:07:48.789Z,6.70
2022-09-23T03:10:23.836Z,7.05
2022-09-23T03:13:16.648Z,6.20
2022-09-23T03:16:10.697Z,6.45
2022-09-23T03:18:50.466Z,6.45
2022-09-23T03:21:35.766Z,7.05
2022-09-23T03:24:05.050Z,6.80
2022-09-23T03:26:34.411Z,6.47
2022-09-23T03:29:05.946Z,6.70
2022-09-23T03:31:33.785Z,6.72
2022-09-23T03:34:01.427Z,6.57
2022-09-23T03:36:52.165Z,6.43
2022-09-23T03:39:28.712Z,7.60
2022-09-23T03:41:58.623Z,7.13
2022-09-23T03:44:29.213Z,6.57
2022-09-23T03:47:02.982Z,7.00
2022-09-23T03:49:34.867Z,6.40
2022-09-23T03:52:03.519Z,6.75
2022-09-23T03:54:30.474Z,6.97
2022-09-23T03:56:58.395Z,6.78
2022-09-23T03:59:25.890Z,7.10
2022-09-23T04:01:53.569Z,6.72
2022-09-23T04:04:20.736Z,6.97
2022-09-23T04:06:48.059Z,6.80
2022-09-23T04:09:15.062Z,6.72
2022-09-23T04:11:42.192Z,6.75
2022-09-23T04:14:09.077Z,6.65
2022-09-23T04:16:35.971Z,6.30
2022-09-23T04:19:04.970Z,6.32
2022-09-23T04:21:32.518Z,7.10
2022-09-23T04:23:59.373Z,7.00
2022-09-23T04:26:26.530Z,5.85
2022-09-23T04:28:54.597Z,6.75
2022-09-23T04:31:23.906Z,7.22
2022-09-23T04:33:52.957Z,7.22
2022-09-23T04:36:19.774Z,7.25
2022-09-23T04:38:47.543Z,6.75
2022-09-23T04:41:15.684Z,6.78
2022-09-23T04:43:42.640Z,7.03
2022-09-23T04:46:11.819Z,6.00
2022-09-23T04:48:39.885Z,6.68
2022-09-23T04:51:15.071Z,6.93
2022-09-23T04:53:44.996Z,10.00
2022-09-23T04:56:16.919Z,9.70
2022-09-23T04:58:44.538Z,7.18
2022-09-23T05:01:16.103Z,6.53
2022-09-23T05:03:43.972Z,6.82
2022-09-23T05:06:13.861Z,7.05
2022-09-23T05:08:46.561Z,6.90
2022-09-23T05:11:13.653Z,6.40
2022-09-23T05:13:40.595Z,6.28
2022-09-23T05:16:10.074Z,6.78
2022-09-23T05:18:42.763Z,6.88
2022-09-23T05:21:11.482Z,6.57
2022-09-23T05:23:39.825Z,6.30
2022-09-23T05:26:11.421Z,6.53
2022-09-23T05:28:39.484Z,6.70
2022-09-23T05:31:09.371Z,6.45
2022-09-23T05:33:37.014Z,7.10
2022-09-23T05:36:05.132Z,6.28
2022-09-23T05:38:32.556Z,6.72
2022-09-23T05:41:01.194Z,6.32
2022-09-23T05:43:28.442Z,7.03
2022-09-23T05:46:10.900Z,6.65
2022-09-23T05:48:39.176Z,6.60
2022-09-23T05:51:11.207Z,7.82
2022-09-23T05:53:39.229Z,7.43
2022-09-23T05:56:06.838Z,7.55
2022-09-23T05:58:34.097Z,7.57
2022-09-23T06:01:00.967Z,7.28
2022-09-23T06:03:27.981Z,7.13
2022-09-23T06:05:55.824Z,7.22
2022-09-23T06:08:23.474Z,6.97
2022-09-23T06:10:54.335Z,7.40
2022-09-23T06:13:22.140Z,7.97
2022-09-23T06:15:49.031Z,7.63
2022-09-23T06:18:17.372Z,7.82
2022-09-23T06:20:44.458Z,8.52
2022-09-23T06:23:11.531Z,8.80
2022-09-23T06:25:38.633Z,8.57
2022-09-23T06:28:12.164Z,8.80
2022-09-23T06:30:42.626Z,9.23
2022-09-23T06:33:12.634Z,9.68
2022-09-23T06:35:39.609Z,9.57
2022-09-23T06:38:06.683Z,9.52
2022-09-23T06:40:33.935Z,8.63
2022-09-23T06:43:01.899Z,8.23
2022-09-23T06:45:29.233Z,9.02
2022-09-23T06:47:57.913Z,8.95
2022-09-23T06:50:26.256Z,8.55
2022-09-23T06:52:56.532Z,8.43
2022-09-23T06:55:24.815Z,9.23
2022-09-23T06:57:51.691Z,9.38
2022-09-23T07:00:19.207Z,8.25
2022-09-23T07:02:46.795Z,7.78
2022-09-23T07:05:15.769Z,8.55
2022-09-23T07:07:43.586Z,9.48
2022-09-23T07:10:11.882Z,8.90
2022-09-23T07:12:39.184Z,8.50
2022-09-23T07:15:07.243Z,9.50
2022-09-23T07:17:35.074Z,9.82
2022-09-23T07:20:02.261Z,9.20
2022-09-23T07:22:29.136Z,8.73
2022-09-23T07:24:56.240Z,8.88
2022-09-23T07:27:27.257Z,9.68
2022-09-23T07:29:54.930Z,7.68
2022-09-23T07:32:22.980Z,8.35
2022-09-23T07:34:50.023Z,8.05
2022-09-23T07:37:17.706Z,7.47
2022-09-23T07:39:45.488Z,7.60
2022-09-23T07:42:13.339Z,7.78
2022-09-23T07:44:44.066Z,7.55
2022-09-23T07:47:11.314Z,7.57
2022-09-23T07:49:38.899Z,7.18
2022-09-23T07:52:05.922Z,7.38
2022-09-23T07:54:33.387Z,7.70
2022-09-23T07:57:00.363Z,7.18
2022-09-23T07:59:27.307Z,6.80
2022-09-23T08:01:55.546Z,7.00
2022-09-23T08:04:25.578Z,7.40
2022-09-23T08:06:55.602Z,8.18
2022-09-23T08:09:25.144Z,7.75
2022-09-23T08:11:52.537Z,7.40
2022-09-23T08:14:19.696Z,6.80
2022-09-23T08:16:47.726Z,7.03
2022-09-23T08:19:15.535Z,7.25
2022-09-23T08:21:42.738Z,7.38
2022-09-23T08:24:14.816Z,7.05
2022-09-23T08:26:41.840Z,6.82
2022-09-23T08:29:12.078Z,7.55
2022-09-23T08:31:39.242Z,6.72
2022-09-23T08:34:06.748Z,6.18
2022-09-23T08:36:34.393Z,6.20
2022-09-23T08:39:01.705Z,6.57
2022-09-23T08:41:31.315Z,6.10
2022-09-23T08:44:02.048Z,6.32
2022-09-23T08:46:36.367Z,6.00
2022-09-23T08:49:05.709Z,6.18
2022-09-23T08:51:40.346Z,6.78
2022-09-23T08:54:10.324Z,6.22
2022-09-23T08:56:38.792Z,6.65
2022-09-23T08:59:13.431Z,6.10
2022-09-23T09:01:48.279Z,6.43
2022-09-23T09:04:32.854Z,6.18
2022-09-23T09:07:31.747Z,7.40
2022-09-23T09:09:52.276Z,8.23
2022-09-23T09:12:28.603Z,7.90
2022-09-23T09:15:02.454Z,8.52
2022-09-23T09:17:36.641Z,8.23
2022-09-23T09:20:18.976Z,8.60
2022-09-23T09:22:49.246Z,10.10
2022-09-23T09:25:51.104Z,10.02
2022-09-23T09:28:37.143Z,10.65
2022-09-23T09:31:29.421Z,10.27
2022-09-23T09:34:01.019Z,8.27
2022-09-23T09:36:38.758Z,8.65
2022-09-23T09:39:06.898Z,8.35
2022-09-23T09:41:33.887Z,8.98
2022-09-23T09:44:03.556Z,8.73
2022-09-23T09:47:06.735Z,8.02
2022-09-23T09:49:43.002Z,7.05
2022-09-23T09:52:20.388Z,7.45
2022-09-23T09:54:49.344Z,6.65
2022-09-23T09:57:32.161Z,6.85
2022-09-23T10:00:18.911Z,7.22
2022-09-23T10:02:46.811Z,7.25
2022-09-23T10:05:35.280Z,6.90
2022-09-23T10:08:21.020Z,8.32
2022-09-23T10:11:01.210Z,7.50
2022-09-23T10:13:30.192Z,7.32
2022-09-23T10:15:59.534Z,7.10
2022-09-23T10:18:29.637Z,6.60
2022-09-23T10:21:02.112Z,5.93
2022-09-23T10:23:29.822Z,5.40
2022-09-23T10:26:02.920Z,5.47
2022-09-23T10:28:47.147Z,6.10
2022-09-23T10:31:26.558Z,5.53
2022-09-23T10:34:20.810Z,5.07
2022-09-23T10:36:54.984Z,5.00
2022-09-23T10:39:40.497Z,4.75
2022-09-23T10:43:00.291Z,4.90
2022-09-23T10:45:46.890Z,4.40
2022-09-23T10:48:55.734Z,4.90
2022-09-23T10:51:30.100Z,4.68
2022-09-23T10:54:10.750Z,5.70
2022-09-23T10:56:43.193Z,5.70
2022-09-23T10:59:18.779Z,6.03
2022-09-23T11:02:04.477Z,4.53
2022-09-23T11:04:52.959Z,4.53
2022-09-23T11:07:37.286Z,4.25
2022-09-23T11:10:42.211Z,3.47
2022-09-23T11:13:13.235Z,2.95
2022-09-23T11:15:55.411Z,2.60
2022-09-23T11:18:29.817Z,2.40
2022-09-23T11:21:07.278Z,1.85
2022-09-23T11:24:16.192Z,1.63
2022-09-23T11:26:53.155Z,1.90
2022-09-23T11:29:55.180Z,2.38
2022-09-23T11:32:38.322Z,1.60
2022-09-23T11:35:24.368Z,1.65
2022-09-23T11:38:15.973Z,1.75
2022-09-23T11:40:46.491Z,1.35
2022-09-23T11:43:29.291Z,1.05
2022-09-23T11:45:56.518Z,1.27
2022-09-23T11:48:32.167Z,1.40
2022-09-23T11:51:03.227Z,1.20
2022-09-23T11:53:42.944Z,1.45
2022-09-23T11:56:29.314Z,1.50
2022-09-23T11:59:06.744Z,1.50
2022-09-23T12:01:41.103Z,1.70
2022-09-23T12:04:31.227Z,1.98
2022-09-23T12:07:08.331Z,1.48
2022-09-23T12:09:59.511Z,1.27
2022-09-23T12:12:51.801Z,1.40
2022-09-23T12:15:45.238Z,1.30
2022-09-23T12:18:39.727Z,1.20
2022-09-23T12:21:48.740Z,1.70
2022-09-23T12:24:22.643Z,1.73
2022-09-23T12:26:53.314Z,1.42
2022-09-23T12:29:20.498Z,1.88
2022-09-23T12:31:48.329Z,1.80
2022-09-23T12:34:27.585Z,1.70
2022-09-23T12:36:54.579Z,1.73
2022-09-23T12:39:25.782Z,1.95
2022-09-23T12:42:02.022Z,1.75
2022-09-23T12:44:42.109Z,1.77
2022-09-23T12:47:15.071Z,1.95
2022-09-23T12:49:43.710Z,1.85
2022-09-23T12:52:10.516Z,2.08
2022-09-23T12:54:41.274Z,2.20
2022-09-23T12:57:11.168Z,2.05
2022-09-23T13:00:07.234Z,2.50
2022-09-23T13:02:36.714Z,3.30
2022-09-23T13:05:35.625Z,3.50
2022-09-23T13:08:07.179Z,3.47
2022-09-23T13:10:39.902Z,2.85
2022-09-23T13:13:15.332Z,3.05
2022-09-23T13:15:42.214Z,2.65
2022-09-23T13:18:21.299Z,2.78
2022-09-23T13:20:49.537Z,3.17
2022-09-23T13:23:26.892Z,3.25
2022-09-23T13:25:59.741Z,3.78
2022-09-23T13:28:33.973Z,3.90
2022-09-23T13:31:06.352Z,3.75
2022-09-23T13:33:43.942Z,3.85
2022-09-23T13:36:14.159Z,4.20
2022-09-23T13:38:42.271Z,4.60
2022-09-23T13:41:25.228Z,4.20
2022-09-23T13:43:58.644Z,3.80
2022-09-23T13:46:29.302Z,3.40
2022-09-23T13:48:56.764Z,3.53
2022-09-23T13:51:36.597Z,3.60
2022-09-23T13:54:04.747Z,3.00
2022-09-23T13:56:32.985Z,2.80
2022-09-23T13:59:21.685Z,2.95
2022-09-23T14:01:49.163Z,2.80
2022-09-23T14:04:25.812Z,2.90
2022-09-23T14:06:53.983Z,3.50
2022-09-23T14:09:27.458Z,3.42
2022-09-23T14:11:57.242Z,2.80
2022-09-23T14:14:24.359Z,1.80
2022-09-23T14:16:52.056Z,1.73
2022-09-23T14:19:21.812Z,1.60
2022-09-23T14:21:53.460Z,1.75
2022-09-23T14:24:22.221Z,1.77
2022-09-23T14:27:04.287Z,1.75
2022-09-23T14:29:33.637Z,1.75
2022-09-23T14:32:06.990Z,1.60
2022-09-23T14:34:58.893Z,1.60
2022-09-23T14:37:55.665Z,1.75
2022-09-23T14:40:29.541Z,1.90
2022-09-23T14:43:04.024Z,2.10
2022-09-23T14:45:37.307Z,2.05
2022-09-23T14:48:14.656Z,2.35
2022-09-23T14:50:52.194Z,2.10
2022-09-23T14:53:22.591Z,2.25
2022-09-23T14:55:57.391Z,2.47
2022-09-23T14:58:30.392Z,2.33
2022-09-23T15:01:01.265Z,2.20
2022-09-23T15:03:28.784Z,2.53
2022-09-23T15:05:59.855Z,2.90
2022-09-23T15:08:27.686Z,3.50
2022-09-23T15:10:55.026Z,3.10
2022-09-23T15:13:30.647Z,3.50
2022-09-23T15:16:00.210Z,3.28
2022-09-23T15:18:28.143Z,3.33
2022-09-23T15:21:02.919Z,3.28
2022-09-23T15:23:48.841Z,3.03
2022-09-23T15:26:18.162Z,2.88
2022-09-23T15:28:45.947Z,2.70
2022-09-23T15:31:18.499Z,2.90
2022-09-23T15:33:49.805Z,2.90
2022-09-23T15:36:21.867Z,2.58
2022-09-23T15:38:49.416Z,2.33
2022-09-23T15:41:17.400Z,2.45
2022-09-23T15:43:44.811Z,2.60
2022-09-23T15:46:19.087Z,2.30
2022-09-23T15:49:09.185Z,2.00
2022-09-23T15:51:37.388Z,2.17
2022-09-23T15:54:09.320Z,2.00
2022-09-23T15:56:36.194Z,2.20
2022-09-23T15:59:03.104Z,2.50
2022-09-23T16:01:31.931Z,2.25
2022-09-23T16:04:03.909Z,1.80
2022-09-23T16:06:31.826Z,2.58
2022-09-23T16:08:58.677Z,2.35
2022-09-23T16:11:29.328Z,2.10
2022-09-23T16:13:56.439Z,2.20
2022-09-23T16:16:23.485Z,2.20
2022-09-23T16:18:51.456Z,5.05
2022-09-23T16:21:20.347Z,5.65
2022-09-23T16:23:49.976Z,3.83
2022-09-23T16:26:19.565Z,4.25
2022-09-23T16:28:48.257Z,4.75
2022-09-23T16:31:16.352Z,4.05
2022-09-23T16:33:44.406Z,3.20
2022-09-23T16:36:22.316Z,3.03
2022-09-23T16:38:49.415Z,3.35
2022-09-23T16:41:16.740Z,2.83
2022-09-23T16:43:43.587Z,3.70
2022-09-23T16:46:12.781Z,2.92
2022-09-23T16:48:43.691Z,2.90
2022-09-23T16:51:16.607Z,3.72
2022-09-23T16:53:44.251Z,4.28
2022-09-23T16:56:13.074Z,3.97
2022-09-23T16:58:40.438Z,5.35
2022-09-23T17:01:26.601Z,6.28
2022-09-23T17:03:54.143Z,6.85
2022-09-23T17:06:21.177Z,8.13
2022-09-23T17:08:48.416Z,7.90
2022-09-23T17:11:16.766Z,9.35
2022-09-23T17:13:44.064Z,6.68
2022-09-23T17:16:21.407Z,8.75
2022-09-23T17:18:48.609Z,25.88
2022-09-23T17:21:15.713Z,44.53
2022-09-23T17:23:42.700Z,34.08
2022-09-23T17:26:12.725Z,40.72
2022-09-23T17:28:40.200Z,18.67
2022-09-23T17:31:07.585Z,18.67
2022-09-23T17:33:37.728Z,18.38
2022-09-23T17:36:09.657Z,17.25
2022-09-23T17:38:39.220Z,10.63
2022-09-23T17:41:07.594Z,8.77
2022-09-23T17:43:36.232Z,15.52
2022-09-23T17:46:08.590Z,12.70
2022-09-23T17:48:37.699Z,12.88
2022-09-23T17:51:06.876Z,9.52
2022-09-23T17:53:37.012Z,7.53
2022-09-23T17:56:06.498Z,7.32
2022-09-23T17:58:36.181Z,7.53
2022-09-23T18:01:03.685Z,9.48
2022-09-23T18:03:31.790Z,11.38
2022-09-23T18:06:15.084Z,12.02
2022-09-23T18:08:43.879Z,8.50
2022-09-23T18:11:24.205Z,10.82
2022-09-23T18:13:57.262Z,19.55
2022-09-23T18:16:29.967Z,22.85
2022-09-23T18:18:59.199Z,11.43
2022-09-23T18:21:28.436Z,10.85
2022-09-23T18:23:59.762Z,9.95
2022-09-23T18:26:34.390Z,17.40
2022-09-23T18:29:01.747Z,16.55
2022-09-23T18:31:32.650Z,25.52
2022-09-23T18:34:01.005Z,16.60
2022-09-23T18:36:29.027Z,11.73
2022-09-23T18:38:55.883Z,9.13
2022-09-23T18:41:23.152Z,7.82
2022-09-23T18:43:50.027Z,13.27
2022-09-23T18:46:21.810Z,22.05
2022-09-23T18:49:07.728Z,19.95
2022-09-23T18:51:36.915Z,13.63
2022-09-23T18:54:06.366Z,20.88
2022-09-23T18:56:39.678Z,19.20
2022-09-23T18:59:08.585Z,11.50
2022-09-23T19:01:35.660Z,10.40
2022-09-23T19:04:03.630Z,8.45
2022-09-23T19:06:35.076Z,6.70
2022-09-23T19:09:02.273Z,5.82
2022-09-23T19:11:29.229Z,5.30
2022-09-23T19:14:03.251Z,4.88
2022-09-23T19:16:31.914Z,4.85
2022-09-23T19:18:59.909Z,6.05
2022-09-23T19:21:28.348Z,5.10
2022-09-23T19:24:07.065Z,5.53
2022-09-23T19:26:39.497Z,10.52
2022-09-23T19:29:08.877Z,8.27
2022-09-23T19:31:40.358Z,7.85
2022-09-23T19:34:17.733Z,10.55
2022-09-23T19:36:46.215Z,14.50
2022-09-23T19:39:19.183Z,9.55
2022-09-23T19:41:47.103Z,6.97
2022-09-23T19:44:14.310Z,6.93
2022-09-23T19:46:44.423Z,5.60
2022-09-23T19:49:12.016Z,5.38
2022-09-23T19:51:39.181Z,4.72
2022-09-23T19:54:07.397Z,4.72
2022-09-23T19:56:35.480Z,4.30
2022-09-23T19:59:05.933Z,4.68
2022-09-23T20:01:33.790Z,4.35
2022-09-23T20:04:01.257Z,5.40
2022-09-23T20:06:32.862Z,4.90
2022-09-23T20:09:01.096Z,5.00
2022-09-23T20:11:28.931Z,5.15
2022-09-23T20:14:01.625Z,5.53
2022-09-23T20:16:35.402Z,5.68
2022-09-23T20:19:04.404Z,5.80
2022-09-23T20:21:33.473Z,6.03
2022-09-23T20:24:01.082Z,5.22
2022-09-23T20:26:46.616Z,5.82
2022-09-23T20:29:14.103Z,5.72
2022-09-23T20:31:41.615Z,5.95
2022-09-23T20:34:10.506Z,6.03
2022-09-23T20:36:39.246Z,5.65
2022-09-23T20:39:06.602Z,6.00
2022-09-23T20:41:37.333Z,6.47
2022-09-23T20:44:07.572Z,7.43
2022-09-23T20:46:35.073Z,6.57
2022-09-23T20:49:02.489Z,7.07
2022-09-23T20:51:29.804Z,10.32
2022-09-23T20:53:56.633Z,8.63
2022-09-23T20:56:23.544Z,8.65
2022-09-23T20:58:52.536Z,8.48
2022-09-23T21:01:20.189Z,7.65
2022-09-23T21:03:49.305Z,7.70
2022-09-23T21:06:18.757Z,6.93
2022-09-23T21:08:47.062Z,6.85
2022-09-23T21:11:16.572Z,8.07
2022-09-23T21:13:48.213Z,8.77
2022-09-23T21:16:16.163Z,13.20
2022-09-23T21:18:43.917Z,18.58
2022-09-23T21:21:12.213Z,15.15
2022-09-23T21:23:39.223Z,13.80
2022-09-23T21:26:14.154Z,9.38
2022-09-23T21:28:43.062Z,7.25
2022-09-23T21:31:25.755Z,7.10
2022-09-23T21:33:56.662Z,6.45
2022-09-23T21:36:24.742Z,6.47
2022-09-23T21:38:52.747Z,8.60
2022-09-23T21:41:20.143Z,15.95
2022-09-23T21:43:47.541Z,16.65
2022-09-23T21:46:17.404Z,15.95
2022-09-23T21:48:45.000Z,11.98
2022-09-23T21:51:15.165Z,15.25
2022-09-23T21:53:43.416Z,14.32
2022-09-23T21:56:21.528Z,13.35
2022-09-23T21:58:48.799Z,12.18
2022-09-23T22:01:19.097Z,11.57
2022-09-23T22:03:53.070Z,10.93
2022-09-23T22:06:27.802Z,12.40
2022-09-23T22:09:00.168Z,12.02
2022-09-23T22:11:51.466Z,12.85
2022-09-23T22:14:19.791Z,11.82
2022-09-23T22:16:47.241Z,11.43
2022-09-23T22:19:15.142Z,11.65
2022-09-23T22:21:45.261Z,9.05
2022-09-23T22:24:12.986Z,10.23
2022-09-23T22:26:41.878Z,11.45
2022-09-23T22:29:32.532Z,10.55
2022-09-23T22:32:19.822Z,9.13
2022-09-23T22:34:50.403Z,12.10
2022-09-23T22:37:21.426Z,8.95
2022-09-23T22:39:48.472Z,9.68
2022-09-23T22:42:15.558Z,9.52
2022-09-23T22:44:42.670Z,9.73
2022-09-23T22:47:10.520Z,11.02
2022-09-23T22:49:37.481Z,10.65
2022-09-23T22:52:08.018Z,11.25
2022-09-23T22:54:35.691Z,10.95
2022-09-23T22:57:07.165Z,11.48
2022-09-23T22:59:37.425Z,11.38
2022-09-23T23:02:06.707Z,11.00
2022-09-23T23:04:33.921Z,11.43
2022-09-23T23:07:03.159Z,14.45
2022-09-23T23:09:30.019Z,18.65
2022-09-23T23:11:56.844Z,15.70
2022-09-23T23:14:23.947Z,15.02
2022-09-23T23:16:50.810Z,14.05
2022-09-23T23:19:19.255Z,14.07
2022-09-23T23:21:46.652Z,15.00
2022-09-23T23:24:18.722Z,16.38
2022-09-23T23:26:46.467Z,15.23
2022-09-23T23:29:15.694Z,14.38
2022-09-23T23:31:43.085Z,14.02
2022-09-23T23:34:18.206Z,13.38
2022-09-23T23:36:46.249Z,14.10
2022-09-23T23:39:13.846Z,13.40
2022-09-23T23:41:41.684Z,12.98
2022-09-23T23:44:09.255Z,14.45
2022-09-23T23:46:37.508Z,22.08
2022-09-23T23:49:05.137Z,16.50
2022-09-23T23:51:32.224Z,14.45
2022-09-23T23:53:59.990Z,13.95
2022-09-23T23:56:27.412Z,14.85
2022-09-23T23:58:59.377Z,15.48
